Time;durP1;ratioP1;P1;durP2;ratioP2;P2;SDS_P1;SDS_P2;PMS_P1;PMS_P2;Temp;Humidity;BMP_temperature;BMP_pressure;BME280_temperature;BME280_humidity;BME280_pressure;Samples;Min_cycle;Max_cycle;Signal;HPM_P1;HPM_P2
2021/01/01 00:00:12;;;;;;;21.87;14.67;;;-2.80;99.90;-4.40;95752.00;;;;6151231;23;20425;-66
2021/01/01 00:02:39;;;;;;;30.17;21.73;;;-2.90;99.90;-4.50;95749.00;;;;6151169;23;20954;-66
2021/01/01 00:05:08;;;;;;;19.20;14.30;;;-2.90;99.90;-4.50;95749.00;;;;6150707;23;20439;-67
2021/01/01 00:07:37;;;;;;;13.77;9.43;;;-2.90;99.90;-4.40;95758.00;;;;6150636;23;20445;-66
2021/01/01 00:10:06;;;;;;;16.67;12.00;;;-2.90;99.90;-4.60;95753.00;;;;6150979;23;20853;-66
2021/01/01 00:12:34;;;;;;;9.43;7.30;;;-2.90;99.90;-4.70;95756.00;;;;6150531;23;20938;-66
2021/01/01 00:15:01;;;;;;;8.07;5.00;;;-3.00;99.90;-4.80;95756.00;;;;6150972;23;20394;-66
2021/01/01 00:17:32;;;;;;;6.17;5.00;;;-3.10;99.90;-4.80;95753.00;;;;6150530;23;20424;-66
2021/01/01 00:19:59;;;;;;;11.27;5.70;;;-3.10;99.90;-4.90;95753.00;;;;6150847;23;21059;-65
2021/01/01 00:22:27;;;;;;;6.97;4.87;;;-3.20;99.90;-5.00;95746.00;;;;6150418;23;20492;-67
2021/01/01 00:24:55;;;;;;;5.90;4.73;;;-3.30;99.90;-5.00;95743.00;;;;6151233;23;20405;-66
2021/01/01 00:27:23;;;;;;;5.90;4.53;;;-3.30;99.90;-5.10;95743.00;;;;6149965;23;20408;-66
2021/01/01 00:29:50;;;;;;;7.00;5.50;;;-3.40;99.90;-5.00;95741.00;;;;6151075;23;20441;-66
2021/01/01 00:32:19;;;;;;;9.27;5.23;;;-3.40;99.90;-5.10;95734.00;;;;6150450;23;20433;-66
2021/01/01 00:34:47;;;;;;;7.33;6.03;;;-3.50;99.90;-4.80;95745.00;;;;6151173;23;20401;-66
2021/01/01 00:37:14;;;;;;;7.63;5.83;;;-3.40;99.90;-4.70;95741.00;;;;6150430;23;20417;-65
2021/01/01 00:39:42;;;;;;;11.97;6.27;;;-3.30;99.90;-4.40;95738.00;;;;6150967;23;20723;-66
2021/01/01 00:42:11;;;;;;;9.93;6.97;;;-3.20;99.90;-4.40;95755.00;;;;6150169;23;20509;-66
2021/01/01 00:44:38;;;;;;;12.10;7.47;;;-3.10;99.90;-4.40;95753.00;;;;6150660;23;20833;-66
2021/01/01 00:47:09;;;;;;;10.07;8.47;;;-3.00;99.90;-4.30;95749.00;;;;6150314;23;20414;-66
2021/01/01 00:49:37;;;;;;;13.80;8.43;;;-3.00;99.90;-4.30;95756.00;;;;6150867;23;20429;-66
2021/01/01 00:52:05;;;;;;;11.77;7.53;;;-2.90;99.90;-4.40;95744.00;;;;6150551;23;20428;-66
2021/01/01 00:54:33;;;;;;;9.90;6.93;;;-2.90;99.90;-4.70;95750.00;;;;6151086;23;20475;-67
2021/01/01 00:57:01;;;;;;;8.27;6.63;;;-3.00;99.90;-5.00;95751.00;;;;6150461;23;20440;-68
2021/01/01 00:59:29;;;;;;;9.67;6.97;;;-3.10;99.90;-5.10;95755.00;;;;6150947;23;20413;-65
2021/01/01 01:01:57;;;;;;;12.80;7.13;;;-3.20;99.90;-5.00;95764.00;;;;6150514;23;20444;-68
2021/01/01 01:04:24;;;;;;;11.90;7.47;;;-3.30;99.90;-5.00;95756.00;;;;6151230;23;20402;-66
2021/01/01 01:06:52;;;;;;;13.07;8.37;;;-3.40;99.90;-4.70;95762.00;;;;6149965;23;20421;-65
2021/01/01 01:09:19;;;;;;;13.43;8.57;;;-3.20;99.90;-4.50;95761.00;;;;6150259;23;20489;-65
2021/01/01 01:11:47;;;;;;;12.83;9.00;;;-3.20;99.90;-4.60;95758.00;;;;6149503;23;20437;-65
2021/01/01 01:14:14;;;;;;;15.67;9.63;;;-3.20;99.90;-4.80;95758.00;;;;6150673;23;20486;-68
2021/01/01 01:16:43;;;;;;;16.33;9.03;;;-3.20;99.90;-4.70;95763.00;;;;6149969;23;20394;-66
2021/01/01 01:19:10;;;;;;;14.47;10.07;;;-3.20;99.90;-4.60;95766.00;;;;6149975;23;20417;-66
2021/01/01 01:21:38;;;;;;;13.37;8.80;;;-3.20;99.90;-4.90;95768.00;;;;6149935;23;20429;-66
2021/01/01 01:24:07;;;;;;;12.30;8.67;;;-3.20;99.90;-5.30;95756.00;;;;6150334;23;20409;-67
2021/01/01 01:26:35;;;;;;;16.77;9.47;;;-3.30;99.90;-5.10;95772.00;;;;6149265;23;20405;-66
2021/01/01 01:29:02;;;;;;;13.90;9.20;;;-3.50;99.90;-4.90;95760.00;;;;6149279;23;20417;-66
2021/01/01 01:31:30;;;;;;;15.53;10.37;;;-3.40;99.90;-4.70;95772.00;;;;6149705;23;20453;-66
2021/01/01 01:33:58;;;;;;;18.40;12.60;;;-3.40;99.90;-4.90;95753.00;;;;6149746;23;20875;-66
2021/01/01 01:36:26;;;;;;;19.10;11.23;;;-3.30;99.90;-5.10;95771.00;;;;6150101;23;20754;-66
2021/01/01 01:38:53;;;;;;;17.90;11.03;;;-3.40;99.90;-4.80;95767.00;;;;6148912;23;20887;-66
2021/01/01 01:41:21;;;;;;;16.87;12.23;;;-3.40;99.90;-4.60;95765.00;;;;6149819;23;20433;-66
2021/01/01 01:43:48;;;;;;;19.53;10.00;;;-3.30;99.90;-4.50;95768.00;;;;6149616;23;20409;-66
2021/01/01 01:46:16;;;;;;;20.97;10.53;;;-3.20;99.90;-4.90;95768.00;;;;6149961;23;20393;-66
2021/01/01 01:48:45;;;;;;;13.03;8.17;;;-3.20;99.90;-5.00;95755.00;;;;6148997;23;20409;-66
2021/01/01 01:51:14;;;;;;;16.43;10.20;;;-3.30;99.90;-4.80;95754.00;;;;6150009;23;20812;-65
2021/01/01 01:53:45;;;;;;;20.30;10.93;;;-3.40;99.90;-4.70;95760.00;;;;6149689;23;20416;-66
2021/01/01 01:56:14;;;;;;;14.97;9.40;;;-3.40;99.90;-4.80;95759.00;;;;6149734;23;20401;-65
2021/01/01 01:58:42;;;;;;;15.23;10.10;;;-3.30;99.90;-4.90;95758.00;;;;6149308;23;20410;-66
2021/01/01 02:01:11;;;;;;;15.50;9.23;;;-3.30;99.90;-4.90;95755.00;;;;6149438;23;20440;-66
2021/01/01 02:03:39;;;;;;;12.80;8.87;;;-3.30;99.90;-4.90;95761.00;;;;6150006;23;20464;-65
2021/01/01 02:06:06;;;;;;;15.47;9.27;;;-3.40;99.90;-4.90;95749.00;;;;6149386;23;20441;-66
2021/01/01 02:08:35;;;;;;;15.77;9.93;;;-3.40;99.90;-5.00;95740.00;;;;6149146;23;20430;-66
2021/01/01 02:11:03;;;;;;;14.40;8.27;;;-3.40;99.90;-5.00;95740.00;;;;6149636;23;20472;-66
2021/01/01 02:13:32;;;;;;;13.20;9.47;;;-3.40;99.90;-5.00;95755.00;;;;6150060;23;20472;-66
2021/01/01 02:15:59;;;;;;;14.87;9.93;;;-3.40;99.90;-5.10;95746.00;;;;6149622;23;20413;-66
2021/01/01 02:18:43;;;;;;;11.93;8.33;;;-3.50;99.90;-5.10;95753.00;;;;6149249;23;20426;-66
2021/01/01 02:21:15;;;;;;;11.60;7.70;;;-3.50;99.90;-4.80;95746.00;;;;6152213;23;20444;-66
2021/01/01 02:23:44;;;;;;;15.37;7.97;;;-3.40;99.90;-4.70;95751.00;;;;6151549;23;20474;-66
2021/01/01 02:26:12;;;;;;;11.60;6.73;;;-3.40;99.90;-4.70;95746.00;;;;6152318;23;20394;-65
2021/01/01 02:28:40;;;;;;;10.60;7.73;;;-3.30;99.90;-4.70;95743.00;;;;6151280;23;20412;-67
2021/01/01 02:31:07;;;;;;;11.50;7.63;;;-3.30;99.90;-4.70;95741.00;;;;6151049;23;20449;-66
2021/01/01 02:33:35;;;;;;;12.10;7.80;;;-3.20;99.90;-4.80;95732.00;;;;6151144;23;20981;-67
2021/01/01 02:36:03;;;;;;;9.80;6.87;;;-3.20;99.90;-5.00;95735.00;;;;6151675;23;20390;-65
2021/01/01 02:38:31;;;;;;;11.53;8.13;;;-3.30;99.90;-5.20;95740.00;;;;6151097;23;20418;-65
2021/01/01 02:40:59;;;;;;;12.27;6.87;;;-3.40;99.90;-5.30;95741.00;;;;6151515;23;20409;-65
2021/01/01 02:43:27;;;;;;;11.83;6.80;;;-3.50;99.90;-4.90;95724.00;;;;6151097;23;20409;-66
2021/01/01 02:45:54;;;;;;;9.83;6.23;;;-3.50;99.90;-5.00;95731.00;;;;6151261;23;20390;-65
2021/01/01 02:48:22;;;;;;;10.03;6.97;;;-3.50;99.90;-5.20;95719.00;;;;6150912;23;21168;-65
2021/01/01 02:50:51;;;;;;;9.27;6.53;;;-3.50;99.90;-5.10;95721.00;;;;6151269;23;20496;-65
2021/01/01 02:53:19;;;;;;;10.13;6.43;;;-3.50;99.90;-5.10;95715.00;;;;6151506;23;20402;-66
2021/01/01 02:55:46;;;;;;;8.17;6.33;;;-3.50;99.90;-5.30;95709.00;;;;6151779;23;20432;-66
2021/01/01 02:58:15;;;;;;;11.43;7.47;;;-3.60;99.90;-5.10;95722.00;;;;6151273;23;21043;-67
2021/01/01 03:00:47;;;;;;;9.17;6.13;;;-3.60;99.90;-5.00;95709.00;;;;6151734;23;20728;-65
2021/01/01 03:03:15;;;;;;;14.33;6.17;;;-3.50;99.90;-5.00;95719.00;;;;6152217;23;20394;-66
2021/01/01 03:05:43;;;;;;;7.73;4.67;;;-3.50;99.90;-5.10;95717.00;;;;6151991;23;20417;-66
2021/01/01 03:08:11;;;;;;;7.67;5.33;;;-3.50;99.90;-5.20;95724.00;;;;6151258;23;20421;-65
2021/01/01 03:10:38;;;;;;;9.33;5.50;;;-3.60;99.90;-5.20;95711.00;;;;6151597;23;21012;-66
2021/01/01 03:13:06;;;;;;;8.00;5.63;;;-3.60;99.90;-5.40;95707.00;;;;6151647;23;20870;-66
2021/01/01 03:15:34;;;;;;;9.10;5.70;;;-4.00;99.90;-5.40;95702.00;;;;6151968;23;20444;-66
2021/01/01 03:18:02;;;;;;;9.13;5.93;;;-3.70;99.90;-5.30;95698.00;;;;6150977;23;20887;-66
2021/01/01 03:20:29;;;;;;;7.63;5.73;;;-3.80;99.90;-5.30;95702.00;;;;6152015;23;20453;-66
2021/01/01 03:22:57;;;;;;;7.67;5.43;;;-3.70;99.90;-5.20;95702.00;;;;6151714;23;20430;-65
2021/01/01 03:25:24;;;;;;;8.60;5.10;;;-3.70;99.90;-5.00;95702.00;;;;6152230;23;20746;-66
2021/01/01 03:27:52;;;;;;;6.97;4.50;;;-3.70;99.90;-4.80;95703.00;;;;6151696;23;20425;-67
2021/01/01 03:30:20;;;;;;;9.03;5.63;;;-3.50;99.90;-4.80;95705.00;;;;6149843;23;20449;-66
2021/01/01 03:32:49;;;;;;;9.07;6.33;;;-3.40;99.90;-4.70;95710.00;;;;6150748;23;20441;-66
2021/01/01 03:35:16;;;;;;;11.13;5.20;;;-3.40;99.90;-4.60;95696.00;;;;6151588;23;20900;-65
2021/01/01 03:37:44;;;;;;;8.30;5.10;;;-3.30;99.90;-4.70;95701.00;;;;6150133;23;20405;-65
2021/01/01 03:40:12;;;;;;;8.13;5.10;;;-3.20;99.90;-4.80;95693.00;;;;6150747;23;20432;-66
2021/01/01 03:42:39;;;;;;;7.77;4.70;;;-3.20;99.90;-4.90;95690.00;;;;6151254;23;20433;-66
2021/01/01 03:45:10;;;;;;;7.90;5.07;;;-3.30;99.90;-4.90;95686.00;;;;6150923;23;20789;-66
2021/01/01 03:47:38;;;;;;;5.83;4.30;;;-3.30;99.90;-4.90;95681.00;;;;6150410;23;20422;-66
2021/01/01 03:50:09;;;;;;;7.70;4.23;;;-3.30;99.90;-4.90;95686.00;;;;6151203;23;20456;-66
2021/01/01 03:52:36;;;;;;;6.93;4.40;;;-3.30;99.90;-5.00;95698.00;;;;6151124;23;20966;-66
2021/01/01 03:55:05;;;;;;;6.03;5.10;;;-3.40;99.90;-5.10;95683.00;;;;6151849;23;20414;-66
2021/01/01 03:57:33;;;;;;;4.07;3.60;;;-3.40;99.90;-5.20;95672.00;;;;6150977;23;20405;-67
2021/01/01 04:00:04;;;;;;;4.83;4.27;;;-3.50;99.90;-5.10;95685.00;;;;6151482;23;20418;-66
2021/01/01 04:02:32;;;;;;;5.13;4.37;;;-3.50;99.90;-5.00;95683.00;;;;6150491;23;20480;-66
2021/01/01 04:05:00;;;;;;;3.97;3.60;;;-3.50;99.90;-4.90;95682.00;;;;6151129;23;20420;-66
2021/01/01 04:07:28;;;;;;;5.73;4.20;;;-3.40;99.90;-4.90;95691.00;;;;6149887;23;20871;-66
2021/01/01 04:09:56;;;;;;;5.47;4.07;;;-3.40;99.90;-5.20;95691.00;;;;6150663;23;20421;-66
2021/01/01 04:12:23;;;;;;;5.60;4.30;;;-3.50;99.90;-5.20;95696.00;;;;6150416;23;20942;-66
2021/01/01 04:14:51;;;;;;;7.77;4.87;;;-3.50;99.90;-5.10;95699.00;;;;6150602;23;20405;-66
2021/01/01 04:17:18;;;;;;;3.47;2.93;;;-3.50;99.90;-5.00;95696.00;;;;6149764;23;20394;-66
2021/01/01 04:19:46;;;;;;;5.23;3.47;;;-3.50;99.90;-5.00;95693.00;;;;6150716;23;21027;-67
2021/01/01 04:22:13;;;;;;;4.33;3.17;;;-3.50;99.90;-5.00;95680.00;;;;6150369;23;20452;-67
2021/01/01 04:24:42;;;;;;;5.73;4.07;;;-3.50;99.90;-5.10;95691.00;;;;6150407;23;20421;-66
2021/01/01 04:27:11;;;;;;;8.60;4.97;;;-3.50;99.90;-5.00;95691.00;;;;6149982;23;20422;-66
2021/01/01 04:29:38;;;;;;;6.47;4.10;;;-3.40;99.90;-5.30;95691.00;;;;6150620;23;20410;-66
2021/01/01 04:32:06;;;;;;;5.47;4.00;;;-3.50;99.90;-5.40;95696.00;;;;6150387;23;20454;-66
2021/01/01 04:34:34;;;;;;;4.30;3.43;;;-3.60;99.90;-5.20;95698.00;;;;6150592;23;20472;-67
2021/01/01 04:37:01;;;;;;;5.03;4.03;;;-3.70;99.90;-5.10;95700.00;;;;6149718;23;20440;-66
2021/01/01 04:39:29;;;;;;;4.60;3.77;;;-3.60;99.90;-5.10;95696.00;;;;6151206;23;20417;-66
2021/01/01 04:41:58;;;;;;;5.23;3.87;;;-3.60;99.90;-5.20;95702.00;;;;6149479;23;20794;-67
2021/01/01 04:44:26;;;;;;;6.60;3.57;;;-3.60;99.90;-5.30;95697.00;;;;6150154;23;20405;-66
2021/01/01 04:46:54;;;;;;;4.80;3.03;;;-3.60;99.90;-5.20;95701.00;;;;6149913;23;20417;-65
2021/01/01 04:49:21;;;;;;;6.87;4.83;;;-3.60;99.90;-5.20;95704.00;;;;6150630;23;20396;-65
2021/01/01 04:51:49;;;;;;;5.10;3.30;;;-3.60;99.90;-5.30;95710.00;;;;6149843;23;20460;-66
2021/01/01 04:54:17;;;;;;;4.87;4.33;;;-3.60;99.90;-5.30;95710.00;;;;6150389;23;20903;-65
2021/01/01 04:56:46;;;;;;;5.63;3.90;;;-3.70;99.90;-5.30;95706.00;;;;6150080;23;20410;-66
2021/01/01 04:59:16;;;;;;;6.77;4.23;;;-3.70;99.90;-5.20;95687.00;;;;6149751;23;20432;-66
2021/01/01 05:01:45;;;;;;;5.07;3.77;;;-3.70;99.90;-5.20;95704.00;;;;6149466;23;20441;-68
2021/01/01 05:04:13;;;;;;;5.17;3.20;;;-3.70;99.90;-5.20;95707.00;;;;6149954;23;20505;-66
2021/01/01 05:06:42;;;;;;;7.83;5.00;;;-3.70;99.90;-5.40;95695.00;;;;6149898;23;20414;-66
2021/01/01 05:09:12;;;;;;;5.57;4.23;;;-3.70;99.90;-5.60;95715.00;;;;6149378;23;20909;-66
2021/01/01 05:11:40;;;;;;;6.30;4.23;;;-3.70;99.90;-5.50;95696.00;;;;6150106;23;21158;-66
2021/01/01 05:14:08;;;;;;;4.80;4.23;;;-3.80;99.90;-5.50;95709.00;;;;6150403;23;20421;-66
2021/01/01 05:16:37;;;;;;;8.13;5.43;;;-3.80;99.90;-5.40;95707.00;;;;6149476;23;20903;-65
2021/01/01 05:19:11;;;;;;;5.13;4.10;;;-3.80;99.90;-5.50;95717.00;;;;6149583;23;20759;-66
2021/01/01 05:21:38;;;;;;;7.73;4.60;;;-3.90;99.90;-5.50;95708.00;;;;6149175;23;20973;-66
2021/01/01 05:24:07;;;;;;;4.93;4.33;;;-3.90;99.90;-5.50;95711.00;;;;6150288;23;20464;-67
2021/01/01 05:26:35;;;;;;;5.73;4.57;;;-3.90;99.90;-5.50;95706.00;;;;6149837;23;20401;-67
2021/01/01 05:29:08;;;;;;;6.53;4.20;;;-3.90;99.90;-5.60;95706.00;;;;6149923;23;20413;-66
2021/01/01 05:31:41;;;;;;;6.53;4.90;;;-3.90;99.90;-5.60;95720.00;;;;6150028;23;20449;-66
2021/01/01 05:34:10;;;;;;;5.20;4.47;;;-3.90;99.90;-5.60;95731.00;;;;6150832;23;20409;-66
2021/01/01 05:36:40;;;;;;;8.57;5.53;;;-4.00;99.90;-5.40;95722.00;;;;6150141;23;20405;-66
2021/01/01 05:39:20;;;;;;;6.47;4.23;;;-3.90;99.90;-5.30;95727.00;;;;6150181;23;20428;-65
2021/01/01 05:41:49;;;;;;;6.40;4.70;;;-3.90;99.90;-5.20;95722.00;;;;6150147;23;20953;-65
2021/01/01 05:44:19;;;;;;;7.17;4.70;;;-3.80;99.90;-5.10;95725.00;;;;6150528;23;20412;-66
2021/01/01 05:47:03;;;;;;;6.70;3.97;;;-3.80;99.90;-5.20;95715.00;;;;6149193;23;20811;-68
2021/01/01 05:49:36;;;;;;;6.63;4.80;;;-3.70;99.90;-5.40;95723.00;;;;6150429;23;21119;-66
2021/01/01 05:52:11;;;;;;;7.30;4.70;;;-3.60;99.90;-5.50;95731.00;;;;6150292;23;21006;-66
2021/01/01 05:54:41;;;;;;;4.63;3.67;;;-3.80;99.90;-5.60;95734.00;;;;6152337;23;20393;-66
2021/01/01 05:57:10;;;;;;;6.23;4.20;;;-3.90;99.90;-5.60;95745.00;;;;6150990;23;20440;-68
2021/01/01 05:59:40;;;;;;;9.17;4.80;;;-3.90;99.90;-5.40;95749.00;;;;6152338;23;20898;-67
2021/01/01 06:02:10;;;;;;;10.13;4.77;;;-3.90;99.90;-5.20;95750.00;;;;6152172;23;20958;-66
2021/01/01 06:04:38;;;;;;;6.10;3.87;;;-3.80;99.90;-5.20;95744.00;;;;6152296;23;20390;-65
2021/01/01 06:07:08;;;;;;;7.67;4.67;;;-3.80;99.90;-5.20;95740.00;;;;6151396;23;20409;-66
2021/01/01 06:09:38;;;;;;;5.80;4.53;;;-3.80;99.90;-5.40;95739.00;;;;6151672;23;20417;-66
2021/01/01 06:12:09;;;;;;;9.13;4.70;;;-3.70;99.90;-5.50;95757.00;;;;6151571;23;20449;-67
2021/01/01 06:14:40;;;;;;;5.83;4.90;;;-3.80;99.90;-5.50;95769.00;;;;6152482;23;20752;-66
2021/01/01 06:17:21;;;;;;;6.77;5.03;;;-3.80;99.90;-5.50;95759.00;;;;6152160;23;20404;-66
2021/01/01 06:19:52;;;;;;;8.23;5.10;;;-3.90;99.90;-5.40;95769.00;;;;6152362;23;20855;-66
2021/01/01 06:22:22;;;;;;;5.67;4.30;;;-3.90;99.90;-5.30;95780.00;;;;6151652;23;20440;-66
2021/01/01 06:24:52;;;;;;;8.03;5.10;;;-3.80;99.90;-5.20;95775.00;;;;6152995;23;20409;-66
2021/01/01 06:27:21;;;;;;;6.97;4.83;;;-3.80;99.90;-5.30;95772.00;;;;6151599;23;20412;-66
2021/01/01 06:29:53;;;;;;;5.87;4.83;;;-3.70;99.90;-5.40;95772.00;;;;6152254;23;20466;-65
2021/01/01 06:32:22;;;;;;;8.50;4.70;;;-3.70;99.90;-5.30;95782.00;;;;6151260;23;20456;-65
2021/01/01 06:34:52;;;;;;;7.83;4.77;;;-3.70;99.90;-5.20;95778.00;;;;6151808;23;20414;-65
2021/01/01 06:37:39;;;;;;;6.37;4.13;;;-3.70;99.90;-5.30;95784.00;;;;6150943;23;20410;-66
2021/01/01 06:40:35;;;;;;;5.63;4.50;;;-3.70;99.90;-5.10;95796.00;;;;6152266;23;20408;-65
2021/01/01 06:43:04;;;;;;;5.47;3.83;;;-3.70;99.90;-5.10;95795.00;;;;6151375;23;20440;-65
2021/01/01 06:45:41;;;;;;;5.70;3.90;;;-3.60;99.90;-5.20;95799.00;;;;6152561;23;20406;-65
2021/01/01 06:48:12;;;;;;;8.43;3.80;;;-3.60;99.90;-5.20;95810.00;;;;6151574;23;20389;-65
2021/01/01 06:50:41;;;;;;;7.97;3.93;;;-3.60;99.90;-5.20;95806.00;;;;6151856;23;20429;-65
2021/01/01 06:53:11;;;;;;;6.50;4.70;;;-3.60;99.90;-5.10;95815.00;;;;6151564;23;20409;-66
2021/01/01 06:55:40;;;;;;;5.03;3.67;;;-3.60;99.90;-5.40;95806.00;;;;6151593;23;20510;-66
2021/01/01 06:58:09;;;;;;;4.63;3.80;;;-3.70;99.90;-5.30;95796.00;;;;6151412;23;20420;-66
2021/01/01 07:00:56;;;;;;;6.10;3.90;;;-3.70;99.90;-5.30;95805.00;;;;6152131;23;20420;-66
2021/01/01 07:03:35;;;;;;;4.00;3.23;;;-3.70;99.90;-5.30;95793.00;;;;6151499;23;20401;-65
2021/01/01 07:06:35;;;;;;;5.87;4.27;;;-3.70;99.90;-5.30;95799.00;;;;6151966;23;20390;-68
2021/01/01 07:09:13;;;;;;;7.07;4.20;;;-3.70;99.90;-5.30;95786.00;;;;6152038;23;20429;-66
2021/01/01 07:11:44;;;;;;;7.03;4.13;;;-3.70;99.90;-5.20;95808.00;;;;6151697;23;20451;-66
2021/01/01 07:14:19;;;;;;;7.43;4.27;;;-3.70;99.90;-5.20;95797.00;;;;6151961;23;20918;-67
2021/01/01 07:16:50;;;;;;;6.90;4.00;;;-3.60;99.90;-5.10;95801.00;;;;6152402;23;20418;-66
2021/01/01 07:19:19;;;;;;;5.83;4.03;;;-3.60;99.90;-5.10;95804.00;;;;6152316;23;20405;-66
2021/01/01 07:21:47;;;;;;;6.57;4.17;;;-3.50;99.90;-4.90;95802.00;;;;6151911;23;20429;-66
2021/01/01 07:24:14;;;;;;;7.80;5.10;;;-3.50;99.90;-4.80;95811.00;;;;6151691;23;20950;-67
2021/01/01 07:26:44;;;;;;;5.03;4.20;;;-3.40;99.90;-4.90;95796.00;;;;6150364;23;20731;-66
2021/01/01 07:29:11;;;;;;;4.73;3.33;;;-3.40;99.90;-4.80;95796.00;;;;6150897;23;20414;-67
2021/01/01 07:31:38;;;;;;;7.03;4.23;;;-3.30;99.90;-4.80;95806.00;;;;6150907;23;20776;-66
2021/01/01 07:34:11;;;;;;;13.30;8.80;;;-3.30;99.90;-4.80;95799.00;;;;6151561;23;20394;-66
2021/01/01 07:36:40;;;;;;;12.73;9.87;;;-3.30;99.90;-4.70;95799.00;;;;6151452;23;20452;-66
2021/01/01 07:39:08;;;;;;;12.13;10.87;;;-3.20;99.90;-4.80;95803.00;;;;6150977;23;20417;-66
2021/01/01 07:41:36;;;;;;;11.83;6.67;;;-3.20;99.90;-5.00;95815.00;;;;6151064;23;20436;-67
2021/01/01 07:44:05;;;;;;;9.33;6.87;;;-3.30;99.90;-4.80;95810.00;;;;6151563;23;20402;-67
2021/01/01 07:46:33;;;;;;;6.73;5.53;;;-3.30;99.90;-4.70;95827.00;;;;6151336;23;20418;-67
2021/01/01 07:49:02;;;;;;;5.30;4.80;;;-3.20;99.90;-4.80;95828.00;;;;6150380;23;20436;-67
2021/01/01 07:51:30;;;;;;;8.20;7.03;;;-3.20;99.90;-4.60;95836.00;;;;6150697;23;20453;-67
2021/01/01 07:54:07;;;;;;;8.87;6.07;;;-3.20;99.90;-4.50;95839.00;;;;6151169;23;20390;-67
2021/01/01 07:56:35;;;;;;;7.17;4.80;;;-3.10;99.90;-4.40;95836.00;;;;6149925;23;20406;-67
2021/01/01 07:59:02;;;;;;;13.77;9.70;;;-3.00;99.90;-4.40;95839.00;;;;6150416;23;20744;-66
2021/01/01 08:01:33;;;;;;;9.27;6.43;;;-3.00;99.90;-4.30;95842.00;;;;6150894;23;20457;-67
2021/01/01 08:04:02;;;;;;;10.23;6.50;;;-2.90;99.90;-4.30;95843.00;;;;6151815;23;20444;-67
2021/01/01 08:06:32;;;;;;;6.90;4.47;;;-2.90;99.90;-4.10;95840.00;;;;6151159;23;20946;-67
2021/01/01 08:09:05;;;;;;;15.63;9.87;;;-2.80;99.90;-4.00;95838.00;;;;6150433;23;20495;-67
2021/01/01 08:11:34;;;;;;;18.80;11.87;;;-2.70;99.90;-4.10;95845.00;;;;6151010;23;20445;-67
2021/01/01 08:14:02;;;;;;;16.07;10.37;;;-2.60;99.90;-4.10;95848.00;;;;6150745;23;20416;-66
2021/01/01 08:16:29;;;;;;;13.10;10.73;;;-2.60;99.90;-3.90;95851.00;;;;6149913;23;20883;-66
2021/01/01 08:18:57;;;;;;;7.43;6.10;;;-2.60;99.90;-3.80;95858.00;;;;6150141;23;20416;-67
2021/01/01 08:21:24;;;;;;;7.47;4.67;;;-2.50;99.90;-3.70;95857.00;;;;6150858;23;20440;-67
2021/01/01 08:23:58;;;;;;;6.27;4.47;;;-2.40;99.90;-3.90;95857.00;;;;6150794;23;20481;-67
2021/01/01 08:26:27;;;;;;;8.50;5.70;;;-2.40;99.90;-3.90;95859.00;;;;6151231;23;20401;-66
2021/01/01 08:29:00;;;;;;;6.27;5.67;;;-2.40;99.90;-3.70;95870.00;;;;6150109;23;20410;-66
2021/01/01 08:31:28;;;;;;;17.33;11.80;;;-1.80;99.90;-3.70;95859.00;;;;6150475;23;20487;-67
2021/01/01 08:33:56;;;;;;;10.40;7.90;;;-2.30;99.90;-3.80;95864.00;;;;6151003;23;20418;-66
2021/01/01 08:36:31;;;;;;;11.67;6.50;;;-2.30;99.90;-3.60;95854.00;;;;6150248;23;20930;-66
2021/01/01 08:39:10;;;;;;;10.20;7.13;;;-2.20;99.90;-3.30;95851.00;;;;6149863;23;20397;-67
2021/01/01 08:41:45;;;;;;;11.63;6.23;;;-1.80;99.90;-3.30;95861.00;;;;6149773;23;20432;-67
2021/01/01 08:44:16;;;;;;;10.30;5.13;;;-2.00;99.90;-3.30;95862.00;;;;6149456;23;20855;-66
2021/01/01 08:46:44;;;;;;;12.80;6.20;;;-1.90;99.90;-3.10;95870.00;;;;6149983;23;20729;-67
2021/01/01 08:49:19;;;;;;;13.27;7.63;;;-1.90;99.90;-2.90;95868.00;;;;6149158;23;20406;-66
2021/01/01 08:51:47;;;;;;;8.87;5.80;;;-1.70;99.90;-2.70;95871.00;;;;6149796;23;20452;-66
2021/01/01 08:54:25;;;;;;;7.50;5.07;;;-1.60;99.90;-2.50;95882.00;;;;6150167;23;20475;-67
2021/01/01 08:57:00;;;;;;;8.60;5.97;;;-1.40;99.90;-2.40;95872.00;;;;6148273;23;20386;-66
2021/01/01 08:59:30;;;;;;;6.63;4.97;;;-1.30;99.90;-2.20;95878.00;;;;6150489;23;20854;-67
2021/01/01 09:01:59;;;;;;;6.47;5.80;;;-1.10;99.90;-2.20;95869.00;;;;6149013;23;20442;-66
2021/01/01 09:04:28;;;;;;;9.03;5.70;;;-1.00;99.90;-2.40;95863.00;;;;6150330;23;20437;-66
2021/01/01 09:06:58;;;;;;;11.30;7.27;;;-1.00;99.90;-2.50;95854.00;;;;6149241;23;20437;-67
2021/01/01 09:09:29;;;;;;;9.77;8.07;;;-1.10;99.90;-2.30;95855.00;;;;6150018;23;20425;-67
2021/01/01 09:12:14;;;;;;;10.77;7.47;;;-1.00;99.90;-2.50;95862.00;;;;6149323;23;20457;-67
2021/01/01 09:14:48;;;;;;;14.57;7.37;;;-1.00;99.90;-2.30;95860.00;;;;6150185;23;20424;-66
2021/01/01 09:17:18;;;;;;;10.53;8.63;;;-1.00;99.90;-2.00;95877.00;;;;6149405;23;20388;-66
2021/01/01 09:19:46;;;;;;;9.80;6.77;;;-0.90;99.90;-1.70;95875.00;;;;6150461;23;20405;-67
2021/01/01 09:22:18;;;;;;;6.73;5.80;;;-0.70;99.90;-1.40;95871.00;;;;6150218;23;20954;-67
2021/01/01 09:24:47;;;;;;;7.67;5.63;;;-0.50;99.90;-1.50;95887.00;;;;6149955;23;20408;-65
2021/01/01 09:27:15;;;;;;;10.97;5.77;;;-0.30;99.90;-1.50;95873.00;;;;6149396;23;20410;-66
2021/01/01 09:29:42;;;;;;;6.97;5.50;;;-0.30;99.90;-1.20;95875.00;;;;6149683;23;20413;-66
2021/01/01 09:32:13;;;;;;;10.10;5.50;;;-0.20;99.90;-0.90;95886.00;;;;6150154;23;21137;-67
2021/01/01 09:34:40;;;;;;;7.53;4.50;;;0.00;99.90;-0.70;95876.00;;;;6150301;23;20477;-67
2021/01/01 09:37:11;;;;;;;6.00;4.23;;;0.20;99.90;-1.10;95877.00;;;;6149563;23;20413;-67
2021/01/01 09:39:39;;;;;;;8.60;4.77;;;0.20;99.90;-1.10;95863.00;;;;6150271;23;20720;-67
2021/01/01 09:42:07;;;;;;;7.33;4.80;;;0.30;99.90;-1.20;95871.00;;;;6150049;23;20434;-66
2021/01/01 09:44:35;;;;;;;6.33;4.20;;;0.20;99.90;-1.00;95866.00;;;;6150260;23;20736;-66
2021/01/01 09:47:02;;;;;;;6.20;4.53;;;0.30;99.90;-0.90;95874.00;;;;6149035;23;20444;-69
2021/01/01 09:49:31;;;;;;;6.57;4.03;;;0.40;99.90;-0.80;95868.00;;;;6148782;23;20475;-67
2021/01/01 09:51:58;;;;;;;6.77;4.40;;;0.40;99.90;-0.50;95872.00;;;;6148762;23;20449;-67
2021/01/01 09:54:35;;;;;;;5.40;4.60;;;0.50;99.90;-0.40;95871.00;;;;6149170;23;20808;-66
2021/01/01 09:57:02;;;;;;;7.33;5.03;;;0.60;99.90;-0.30;95875.00;;;;6148634;23;20437;-67
2021/01/01 09:59:30;;;;;;;6.80;4.17;;;0.80;99.90;0.00;95885.00;;;;6149920;23;20393;-67
2021/01/01 10:01:58;;;;;;;5.93;5.17;;;0.90;99.90;0.10;95876.00;;;;6149950;23;20430;-66
2021/01/01 10:04:26;;;;;;;7.90;5.60;;;1.00;99.90;0.00;95870.00;;;;6149307;23;20417;-67
2021/01/01 10:06:54;;;;;;;6.30;5.07;;;1.20;99.90;0.30;95881.00;;;;6147454;23;20878;-66
2021/01/01 10:09:22;;;;;;;5.93;5.00;;;1.30;99.90;0.30;95882.00;;;;6150218;23;20426;-66
2021/01/01 10:11:50;;;;;;;4.77;3.93;;;1.40;99.90;0.40;95887.00;;;;6149576;23;20445;-66
2021/01/01 10:14:18;;;;;;;6.70;4.80;;;1.50;99.90;0.40;95882.00;;;;6149888;23;20417;-66
2021/01/01 10:16:48;;;;;;;5.20;4.47;;;1.60;99.90;0.50;95870.00;;;;6149943;23;20417;-67
2021/01/01 10:19:16;;;;;;;4.77;3.87;;;1.70;99.90;0.60;95864.00;;;;6149909;23;20898;-68
2021/01/01 10:21:45;;;;;;;5.93;3.80;;;1.70;99.90;0.70;95873.00;;;;6148943;23;20968;-66
2021/01/01 10:24:13;;;;;;;29.53;14.83;;;1.90;99.90;0.90;95877.00;;;;6149250;23;20406;-67
2021/01/01 10:26:41;;;;;;;14.30;7.30;;;2.10;99.90;1.30;95876.00;;;;6149625;23;20420;-65
2021/01/01 10:29:15;;;;;;;12.13;7.73;;;2.30;99.90;1.60;95883.00;;;;6149598;23;20436;-68
2021/01/01 10:31:43;;;;;;;11.17;7.33;;;2.60;99.90;2.10;95881.00;;;;6149923;23;20965;-67
2021/01/01 10:34:11;;;;;;;13.70;7.93;;;3.00;99.90;2.30;95880.00;;;;6150096;23;20409;-66
2021/01/01 10:36:39;;;;;;;10.10;6.20;;;3.40;99.90;2.00;95879.00;;;;6149528;23;20194;-68
2021/01/01 10:39:07;;;;;;;9.13;5.47;;;3.40;99.90;2.00;95882.00;;;;6148277;23;20190;-66
2021/01/01 10:41:37;;;;;;;10.23;6.50;;;3.40;99.90;1.70;95875.00;;;;6149867;23;20202;-65
2021/01/01 10:44:05;;;;;;;12.87;7.70;;;3.30;99.90;2.00;95871.00;;;;6150743;23;20197;-68
2021/01/01 10:46:33;;;;;;;6.53;4.67;;;3.30;99.90;2.40;95865.00;;;;6150178;23;20189;-66
2021/01/01 10:49:00;;;;;;;6.70;4.40;;;3.30;99.90;3.00;95855.00;;;;6149275;23;20218;-66
2021/01/01 10:51:28;;;;;;;5.37;3.90;;;3.60;99.90;4.10;95857.00;;;;6149771;23;20214;-65
2021/01/01 10:53:55;;;;;;;4.47;3.57;;;4.20;99.90;5.00;95855.00;;;;6149512;23;20644;-67
2021/01/01 10:56:24;;;;;;;4.30;3.17;;;5.10;99.90;5.70;95871.00;;;;6149982;23;20182;-66
2021/01/01 10:58:53;;;;;;;2.90;2.60;;;6.00;99.90;6.30;95866.00;;;;6148071;23;20189;-66
2021/01/01 11:01:22;;;;;;;4.67;3.17;;;6.80;98.60;7.40;95872.00;;;;6148826;23;20687;-66